TRI weather

Tri-Cities Regional TN/VA Airport
Bristol/Johnson/Kingsport, Tennessee, United States

Public forecast

Using degrees Fahrenheit for public forecast. Weather courtesy of forecast.io.

Current aviation weather report (METAR) for Tri-Cities Regional TN/VA Airport

Retrieved 2020/06/02 01:53 UTC (38 minutes ago):

KTRI 020153Z 16003KT 10SM CLR 17/06 A3022 RMK AO2 SLP213 T01670061

Aviation forecast (TAF) for Tri-Cities Regional TN/VA Airport

Retrieved 2020-06-02 00:30 UTC (2 hours ago):

TAF KTRI 012328Z 0200/0224 VRB03KT P6SM SCT200 FM020600 00000KT P6SM BKN120 FM021500 24009KT P6SM SCT050